sensor_id;sensor_type;location;lat;lon;timestamp;temperature;humidity
17333;DHT22;8784;50.94667800;7.08448400;2022-10-19T00:00:19;11.20;99.90
17333;DHT22;8784;50.94667800;7.08448400;2022-10-19T00:02:46;11.20;99.90
17333;DHT22;8784;50.94667800;7.08448400;2022-10-19T00:05:13;11.20;99.90
17333;DHT22;8784;50.94667800;7.08448400;2022-10-19T00:07:40;11.10;99.90
17333;DHT22;8784;50.94667800;7.08448400;2022-10-19T00:10:07;11.10;99.90
17333;DHT22;8784;50.94667800;7.08448400;2022-10-19T00:12:34;11.10;99.90
17333;DHT22;8784;50.94667800;7.08448400;2022-10-19T00:15:03;11.10;99.90
17333;DHT22;8784;50.94667800;7.08448400;2022-10-19T00:17:30;11.10;99.90
17333;DHT22;8784;50.94667800;7.08448400;2022-10-19T00:19:57;11.10;99.90
17333;DHT22;8784;50.94667800;7.08448400;2022-10-19T00:22:24;11.10;99.90
17333;DHT22;8784;50.94667800;7.08448400;2022-10-19T00:24:51;11.10;99.90
17333;DHT22;8784;50.94667800;7.08448400;2022-10-19T00:27:18;11.00;99.90
17333;DHT22;8784;50.94667800;7.08448400;2022-10-19T00:29:45;11.00;99.90
17333;DHT22;8784;50.94667800;7.08448400;2022-10-19T00:32:13;11.00;99.90
17333;DHT22;8784;50.94667800;7.08448400;2022-10-19T00:34:40;10.90;99.90
17333;DHT22;8784;50.94667800;7.08448400;2022-10-19T00:37:07;10.90;99.90
17333;DHT22;8784;50.94667800;7.08448400;2022-10-19T00:39:34;10.90;99.90
17333;DHT22;8784;50.94667800;7.08448400;2022-10-19T00:42:01;10.90;99.90
17333;DHT22;8784;50.94667800;7.08448400;2022-10-19T00:44:58;10.90;99.90
17333;DHT22;8784;50.94667800;7.08448400;2022-10-19T00:47:27;10.90;99.90
17333;DHT22;8784;50.94667800;7.08448400;2022-10-19T00:49:54;10.80;99.90
17333;DHT22;8784;50.94667800;7.08448400;2022-10-19T00:52:23;10.80;99.90
17333;DHT22;8784;50.94667800;7.08448400;2022-10-19T00:54:51;10.80;99.90
17333;DHT22;8784;50.94667800;7.08448400;2022-10-19T00:57:19;10.80;99.90
17333;DHT22;8784;50.94667800;7.08448400;2022-10-19T00:59:47;10.70;99.90
17333;DHT22;8784;50.94667800;7.08448400;2022-10-19T01:02:14;10.70;99.90
17333;DHT22;8784;50.94667800;7.08448400;2022-10-19T01:04:46;10.70;99.90
17333;DHT22;8784;50.94667800;7.08448400;2022-10-19T01:07:14;10.60;99.90
17333;DHT22;8784;50.94667800;7.08448400;2022-10-19T01:09:41;10.60;99.90
17333;DHT22;8784;50.94667800;7.08448400;2022-10-19T01:12:16;10.60;99.90
17333;DHT22;8784;50.94667800;7.08448400;2022-10-19T01:14:54;10.60;99.90
17333;DHT22;8784;50.94667800;7.08448400;2022-10-19T01:17:39;10.60;99.90
17333;DHT22;8784;50.94667800;7.08448400;2022-10-19T01:20:30;10.60;99.90
17333;DHT22;8784;50.94667800;7.08448400;2022-10-19T01:23:07;10.50;99.90
17333;DHT22;8784;50.94667800;7.08448400;2022-10-19T01:25:50;10.60;99.90
17333;DHT22;8784;50.94667800;7.08448400;2022-10-19T01:28:31;10.50;99.90
17333;DHT22;8784;50.94667800;7.08448400;2022-10-19T01:31:08;10.60;99.90
17333;DHT22;8784;50.94667800;7.08448400;2022-10-19T01:33:43;10.50;99.90
17333;DHT22;8784;50.94667800;7.08448400;2022-10-19T01:36:20;10.50;99.90
17333;DHT22;8784;50.94667800;7.08448400;2022-10-19T01:38:52;10.40;99.90
17333;DHT22;8784;50.94667800;7.08448400;2022-10-19T01:41:27;10.40;99.90
17333;DHT22;8784;50.94667800;7.08448400;2022-10-19T01:43:58;10.40;99.90
17333;DHT22;8784;50.94667800;7.08448400;2022-10-19T01:46:31;10.40;99.90
17333;DHT22;8784;50.94667800;7.08448400;2022-10-19T01:49:03;10.40;99.90
17333;DHT22;8784;50.94667800;7.08448400;2022-10-19T01:51:36;10.40;99.90
17333;DHT22;8784;50.94667800;7.08448400;2022-10-19T01:54:07;10.40;99.90
17333;DHT22;8784;50.94667800;7.08448400;2022-10-19T01:56:36;10.40;99.90
17333;DHT22;8784;50.94667800;7.08448400;2022-10-19T01:59:08;10.30;99.90
17333;DHT22;8784;50.94667800;7.08448400;2022-10-19T02:01:40;10.30;99.90
17333;DHT22;8784;50.94667800;7.08448400;2022-10-19T02:04:08;10.30;99.90
17333;DHT22;8784;50.94667800;7.08448400;2022-10-19T02:06:37;10.10;99.90
17333;DHT22;8784;50.94667800;7.08448400;2022-10-19T02:09:04;10.10;99.90
17333;DHT22;8784;50.94667800;7.08448400;2022-10-19T02:11:31;10.00;99.90
17333;DHT22;8784;50.94667800;7.08448400;2022-10-19T02:14:00;10.00;99.90
17333;DHT22;8784;50.94667800;7.08448400;2022-10-19T02:16:33;10.00;99.90
17333;DHT22;8784;50.94667800;7.08448400;2022-10-19T02:19:02;9.90;99.90
17333;DHT22;8784;50.94667800;7.08448400;2022-10-19T02:21:31;9.90;99.90
17333;DHT22;8784;50.94667800;7.08448400;2022-10-19T02:23:57;10.00;99.90
17333;DHT22;8784;50.94667800;7.08448400;2022-10-19T02:26:25;9.90;99.90
17333;DHT22;8784;50.94667800;7.08448400;2022-10-19T02:28:53;10.00;99.90
17333;DHT22;8784;50.94667800;7.08448400;2022-10-19T02:31:20;10.00;99.90
17333;DHT22;8784;50.94667800;7.08448400;2022-10-19T02:33:47;10.00;99.90
17333;DHT22;8784;50.94667800;7.08448400;2022-10-19T02:36:16;10.00;99.90
17333;DHT22;8784;50.94667800;7.08448400;2022-10-19T02:38:44;10.00;99.90
17333;DHT22;8784;50.94667800;7.08448400;2022-10-19T02:41:14;10.00;99.90
17333;DHT22;8784;50.94667800;7.08448400;2022-10-19T02:43:47;10.00;99.90
17333;DHT22;8784;50.94667800;7.08448400;2022-10-19T02:46:19;10.00;99.90
17333;DHT22;8784;50.94667800;7.08448400;2022-10-19T02:48:50;10.00;99.90
17333;DHT22;8784;50.94667800;7.08448400;2022-10-19T02:51:29;10.00;99.90
17333;DHT22;8784;50.94667800;7.08448400;2022-10-19T02:53:56;9.90;99.90
17333;DHT22;8784;50.94667800;7.08448400;2022-10-19T02:56:23;9.90;99.90
17333;DHT22;8784;50.94667800;7.08448400;2022-10-19T02:58:50;9.90;99.90
17333;DHT22;8784;50.94667800;7.08448400;2022-10-19T03:01:17;9.90;99.90
17333;DHT22;8784;50.94667800;7.08448400;2022-10-19T03:03:44;9.80;99.90
17333;DHT22;8784;50.94667800;7.08448400;2022-10-19T03:06:11;9.80;99.90
17333;DHT22;8784;50.94667800;7.08448400;2022-10-19T03:08:39;9.80;99.90
17333;DHT22;8784;50.94667800;7.08448400;2022-10-19T03:11:06;9.80;99.90
17333;DHT22;8784;50.94667800;7.08448400;2022-10-19T03:13:33;9.80;99.90
17333;DHT22;8784;50.94667800;7.08448400;2022-10-19T03:16:06;9.80;99.90
17333;DHT22;8784;50.94667800;7.08448400;2022-10-19T03:18:33;9.80;99.90
17333;DHT22;8784;50.94667800;7.08448400;2022-10-19T03:21:04;9.70;99.90
17333;DHT22;8784;50.94667800;7.08448400;2022-10-19T03:23:32;9.70;99.90
17333;DHT22;8784;50.94667800;7.08448400;2022-10-19T03:26:00;9.70;99.90
17333;DHT22;8784;50.94667800;7.08448400;2022-10-19T03:28:27;9.70;99.90
17333;DHT22;8784;50.94667800;7.08448400;2022-10-19T03:30:54;9.70;99.90
17333;DHT22;8784;50.94667800;7.08448400;2022-10-19T03:33:21;9.60;99.90
17333;DHT22;8784;50.94667800;7.08448400;2022-10-19T03:35:48;9.60;99.90
17333;DHT22;8784;50.94667800;7.08448400;2022-10-19T03:38:15;9.50;99.90
17333;DHT22;8784;50.94667800;7.08448400;2022-10-19T03:40:42;9.50;99.90
17333;DHT22;8784;50.94667800;7.08448400;2022-10-19T03:43:10;9.50;99.90
17333;DHT22;8784;50.94667800;7.08448400;2022-10-19T03:45:37;9.50;99.90
17333;DHT22;8784;50.94667800;7.08448400;2022-10-19T03:48:04;9.50;99.90
17333;DHT22;8784;50.94667800;7.08448400;2022-10-19T03:50:31;9.50;99.90
17333;DHT22;8784;50.94667800;7.08448400;2022-10-19T03:52:58;9.50;99.90
17333;DHT22;8784;50.94667800;7.08448400;2022-10-19T03:55:25;9.50;99.90
17333;DHT22;8784;50.94667800;7.08448400;2022-10-19T03:57:52;9.50;99.90
17333;DHT22;8784;50.94667800;7.08448400;2022-10-19T04:00:20;9.50;99.90
17333;DHT22;8784;50.94667800;7.08448400;2022-10-19T04:02:47;9.50;99.90
17333;DHT22;8784;50.94667800;7.08448400;2022-10-19T04:05:14;9.50;99.90
17333;DHT22;8784;50.94667800;7.08448400;2022-10-19T04:07:41;9.50;99.90
17333;DHT22;8784;50.94667800;7.08448400;2022-10-19T04:10:08;9.40;99.90
17333;DHT22;8784;50.94667800;7.08448400;2022-10-19T04:12:35;9.40;99.90
17333;DHT22;8784;50.94667800;7.08448400;2022-10-19T04:15:02;9.50;99.90
17333;DHT22;8784;50.94667800;7.08448400;2022-10-19T04:17:31;9.40;99.90
17333;DHT22;8784;50.94667800;7.08448400;2022-10-19T04:19:57;9.40;99.90
17333;DHT22;8784;50.94667800;7.08448400;2022-10-19T04:22:24;9.20;99.90
17333;DHT22;8784;50.94667800;7.08448400;2022-10-19T04:24:52;9.30;99.90
17333;DHT22;8784;50.94667800;7.08448400;2022-10-19T04:27:19;9.30;99.90
17333;DHT22;8784;50.94667800;7.08448400;2022-10-19T04:29:46;9.20;99.90
17333;DHT22;8784;50.94667800;7.08448400;2022-10-19T04:32:13;9.30;99.90
17333;DHT22;8784;50.94667800;7.08448400;2022-10-19T04:34:41;9.20;99.90
17333;DHT22;8784;50.94667800;7.08448400;2022-10-19T04:37:08;9.20;99.90
17333;DHT22;8784;50.94667800;7.08448400;2022-10-19T04:39:35;9.20;99.90
17333;DHT22;8784;50.94667800;7.08448400;2022-10-19T04:42:05;9.20;99.90
17333;DHT22;8784;50.94667800;7.08448400;2022-10-19T04:44:32;9.10;99.90
17333;DHT22;8784;50.94667800;7.08448400;2022-10-19T04:46:59;9.10;99.90
17333;DHT22;8784;50.94667800;7.08448400;2022-10-19T04:49:26;9.10;99.90
17333;DHT22;8784;50.94667800;7.08448400;2022-10-19T04:51:54;9.10;99.90
17333;DHT22;8784;50.94667800;7.08448400;2022-10-19T04:54:21;9.10;99.90
17333;DHT22;8784;50.94667800;7.08448400;2022-10-19T04:56:48;9.00;99.90
17333;DHT22;8784;50.94667800;7.08448400;2022-10-19T04:59:15;9.00;99.90
17333;DHT22;8784;50.94667800;7.08448400;2022-10-19T05:01:41;9.00;99.90
17333;DHT22;8784;50.94667800;7.08448400;2022-10-19T05:04:09;8.90;99.90
17333;DHT22;8784;50.94667800;7.08448400;2022-10-19T05:06:36;8.90;99.90
17333;DHT22;8784;50.94667800;7.08448400;2022-10-19T05:09:04;8.90;99.90
17333;DHT22;8784;50.94667800;7.08448400;2022-10-19T05:11:31;8.90;99.90
17333;DHT22;8784;50.94667800;7.08448400;2022-10-19T05:13:59;8.80;99.90
17333;DHT22;8784;50.94667800;7.08448400;2022-10-19T05:16:25;8.80;99.90
17333;DHT22;8784;50.94667800;7.08448400;2022-10-19T05:18:54;8.80;99.90
17333;DHT22;8784;50.94667800;7.08448400;2022-10-19T05:21:23;8.70;99.90
17333;DHT22;8784;50.94667800;7.08448400;2022-10-19T05:23:52;8.70;99.90
17333;DHT22;8784;50.94667800;7.08448400;2022-10-19T05:26:22;8.70;99.90
17333;DHT22;8784;50.94667800;7.08448400;2022-10-19T05:28:51;8.70;99.90
17333;DHT22;8784;50.94667800;7.08448400;2022-10-19T05:31:21;8.60;99.90
17333;DHT22;8784;50.94667800;7.08448400;2022-10-19T05:33:48;8.60;99.90
17333;DHT22;8784;50.94667800;7.08448400;2022-10-19T05:36:18;8.60;99.90
17333;DHT22;8784;50.94667800;7.08448400;2022-10-19T05:38:46;8.60;99.90
17333;DHT22;8784;50.94667800;7.08448400;2022-10-19T05:41:14;8.70;99.90
17333;DHT22;8784;50.94667800;7.08448400;2022-10-19T05:43:43;8.60;99.90
17333;DHT22;8784;50.94667800;7.08448400;2022-10-19T05:46:12;8.60;99.90
17333;DHT22;8784;50.94667800;7.08448400;2022-10-19T05:48:40;8.60;99.90
17333;DHT22;8784;50.94667800;7.08448400;2022-10-19T05:51:10;8.60;99.90
17333;DHT22;8784;50.94667800;7.08448400;2022-10-19T05:53:37;8.60;99.90
17333;DHT22;8784;50.94667800;7.08448400;2022-10-19T05:56:05;8.60;99.90
17333;DHT22;8784;50.94667800;7.08448400;2022-10-19T05:58:33;8.60;99.90
17333;DHT22;8784;50.94667800;7.08448400;2022-10-19T06:01:02;8.60;99.90
17333;DHT22;8784;50.94667800;7.08448400;2022-10-19T06:03:29;8.70;99.90
17333;DHT22;8784;50.94667800;7.08448400;2022-10-19T06:05:56;8.60;99.90
17333;DHT22;8784;50.94667800;7.08448400;2022-10-19T06:08:25;8.60;99.90
17333;DHT22;8784;50.94667800;7.08448400;2022-10-19T06:10:52;8.60;99.90
17333;DHT22;8784;50.94667800;7.08448400;2022-10-19T06:13:20;8.60;99.90
17333;DHT22;8784;50.94667800;7.08448400;2022-10-19T06:15:49;8.70;99.90
17333;DHT22;8784;50.94667800;7.08448400;2022-10-19T06:18:18;8.60;99.90
17333;DHT22;8784;50.94667800;7.08448400;2022-10-19T06:20:51;8.50;99.90
17333;DHT22;8784;50.94667800;7.08448400;2022-10-19T06:23:17;8.50;99.90
17333;DHT22;8784;50.94667800;7.08448400;2022-10-19T06:25:44;8.60;99.90
17333;DHT22;8784;50.94667800;7.08448400;2022-10-19T06:28:11;8.60;99.90
17333;DHT22;8784;50.94667800;7.08448400;2022-10-19T06:30:39;8.60;99.90
17333;DHT22;8784;50.94667800;7.08448400;2022-10-19T06:33:06;8.60;99.90
17333;DHT22;8784;50.94667800;7.08448400;2022-10-19T06:35:34;8.60;99.90
17333;DHT22;8784;50.94667800;7.08448400;2022-10-19T06:38:02;8.60;99.90
17333;DHT22;8784;50.94667800;7.08448400;2022-10-19T06:40:29;8.60;99.90
17333;DHT22;8784;50.94667800;7.08448400;2022-10-19T06:42:56;8.60;99.90
17333;DHT22;8784;50.94667800;7.08448400;2022-10-19T06:45:23;8.60;99.90
17333;DHT22;8784;50.94667800;7.08448400;2022-10-19T06:47:50;8.70;99.90
17333;DHT22;8784;50.94667800;7.08448400;2022-10-19T06:50:17;8.70;99.90
17333;DHT22;8784;50.94667800;7.08448400;2022-10-19T06:52:46;8.80;99.90
17333;DHT22;8784;50.94667800;7.08448400;2022-10-19T06:55:13;8.90;99.90
17333;DHT22;8784;50.94667800;7.08448400;2022-10-19T06:57:42;9.00;99.90
17333;DHT22;8784;50.94667800;7.08448400;2022-10-19T07:00:10;9.00;99.90
17333;DHT22;8784;50.94667800;7.08448400;2022-10-19T07:02:38;9.00;99.90
17333;DHT22;8784;50.94667800;7.08448400;2022-10-19T07:05:06;9.10;99.90
17333;DHT22;8784;50.94667800;7.08448400;2022-10-19T07:07:33;9.10;99.90
17333;DHT22;8784;50.94667800;7.08448400;2022-10-19T07:10:01;9.10;99.90
17333;DHT22;8784;50.94667800;7.08448400;2022-10-19T07:12:29;9.10;99.90
17333;DHT22;8784;50.94667800;7.08448400;2022-10-19T07:14:55;9.10;99.90
17333;DHT22;8784;50.94667800;7.08448400;2022-10-19T07:17:22;9.10;99.90
17333;DHT22;8784;50.94667800;7.08448400;2022-10-19T07:19:49;9.10;99.90
17333;DHT22;8784;50.94667800;7.08448400;2022-10-19T07:22:16;9.10;99.90
17333;DHT22;8784;50.94667800;7.08448400;2022-10-19T07:24:43;9.30;99.90
17333;DHT22;8784;50.94667800;7.08448400;2022-10-19T07:27:11;9.40;99.90
17333;DHT22;8784;50.94667800;7.08448400;2022-10-19T07:29:38;9.50;99.90
17333;DHT22;8784;50.94667800;7.08448400;2022-10-19T07:32:05;9.60;99.90
17333;DHT22;8784;50.94667800;7.08448400;2022-10-19T07:34:32;9.80;99.90
17333;DHT22;8784;50.94667800;7.08448400;2022-10-19T07:36:59;9.80;99.90
17333;DHT22;8784;50.94667800;7.08448400;2022-10-19T07:39:26;9.90;99.90
17333;DHT22;8784;50.94667800;7.08448400;2022-10-19T07:41:52;10.00;99.90
17333;DHT22;8784;50.94667800;7.08448400;2022-10-19T07:44:21;10.10;99.90
17333;DHT22;8784;50.94667800;7.08448400;2022-10-19T07:46:48;10.30;99.90
17333;DHT22;8784;50.94667800;7.08448400;2022-10-19T07:49:15;10.50;99.90
17333;DHT22;8784;50.94667800;7.08448400;2022-10-19T07:51:44;10.60;99.90
17333;DHT22;8784;50.94667800;7.08448400;2022-10-19T07:54:11;10.70;99.90
17333;DHT22;8784;50.94667800;7.08448400;2022-10-19T07:56:38;10.90;99.90
17333;DHT22;8784;50.94667800;7.08448400;2022-10-19T07:59:05;11.00;99.90
17333;DHT22;8784;50.94667800;7.08448400;2022-10-19T08:01:37;11.10;99.90
17333;DHT22;8784;50.94667800;7.08448400;2022-10-19T08:04:05;11.30;99.90
17333;DHT22;8784;50.94667800;7.08448400;2022-10-19T08:06:32;11.40;99.90
17333;DHT22;8784;50.94667800;7.08448400;2022-10-19T08:09:01;11.60;99.90
17333;DHT22;8784;50.94667800;7.08448400;2022-10-19T08:11:30;11.70;99.90
17333;DHT22;8784;50.94667800;7.08448400;2022-10-19T08:13:58;11.80;99.90
17333;DHT22;8784;50.94667800;7.08448400;2022-10-19T08:16:29;11.90;99.90
17333;DHT22;8784;50.94667800;7.08448400;2022-10-19T08:19:00;12.00;99.90
17333;DHT22;8784;50.94667800;7.08448400;2022-10-19T08:21:29;12.10;99.90
17333;DHT22;8784;50.94667800;7.08448400;2022-10-19T08:23:56;12.20;99.90
17333;DHT22;8784;50.94667800;7.08448400;2022-10-19T08:26:23;12.30;99.90
17333;DHT22;8784;50.94667800;7.08448400;2022-10-19T08:28:50;12.40;99.90
17333;DHT22;8784;50.94667800;7.08448400;2022-10-19T08:31:19;12.50;99.90
17333;DHT22;8784;50.94667800;7.08448400;2022-10-19T08:33:48;12.60;99.90
17333;DHT22;8784;50.94667800;7.08448400;2022-10-19T08:36:17;12.70;99.90
17333;DHT22;8784;50.94667800;7.08448400;2022-10-19T08:38:46;12.80;99.90
17333;DHT22;8784;50.94667800;7.08448400;2022-10-19T08:41:21;13.00;99.90
17333;DHT22;8784;50.94667800;7.08448400;2022-10-19T08:44:21;13.10;99.90
17333;DHT22;8784;50.94667800;7.08448400;2022-10-19T08:46:55;13.20;99.90
17333;DHT22;8784;50.94667800;7.08448400;2022-10-19T08:49:25;13.30;99.90
17333;DHT22;8784;50.94667800;7.08448400;2022-10-19T08:51:57;13.40;99.90
17333;DHT22;8784;50.94667800;7.08448400;2022-10-19T08:54:33;13.60;99.90
17333;DHT22;8784;50.94667800;7.08448400;2022-10-19T08:57:05;13.80;99.90
17333;DHT22;8784;50.94667800;7.08448400;2022-10-19T08:59:38;13.90;99.90
17333;DHT22;8784;50.94667800;7.08448400;2022-10-19T09:02:13;14.10;99.90
17333;DHT22;8784;50.94667800;7.08448400;2022-10-19T09:04:45;14.30;99.90
17333;DHT22;8784;50.94667800;7.08448400;2022-10-19T09:07:33;14.50;99.90
17333;DHT22;8784;50.94667800;7.08448400;2022-10-19T09:10:21;14.60;99.90
17333;DHT22;8784;50.94667800;7.08448400;2022-10-19T09:12:55;14.80;99.90
17333;DHT22;8784;50.94667800;7.08448400;2022-10-19T09:15:26;14.90;99.90
17333;DHT22;8784;50.94667800;7.08448400;2022-10-19T09:17:53;15.10;99.90
17333;DHT22;8784;50.94667800;7.08448400;2022-10-19T09:20:22;15.20;99.90
17333;DHT22;8784;50.94667800;7.08448400;2022-10-19T09:23:01;15.40;99.90
17333;DHT22;8784;50.94667800;7.08448400;2022-10-19T09:25:30;15.60;99.90
17333;DHT22;8784;50.94667800;7.08448400;2022-10-19T09:28:05;15.90;99.90
17333;DHT22;8784;50.94667800;7.08448400;2022-10-19T09:30:38;16.10;99.90
17333;DHT22;8784;50.94667800;7.08448400;2022-10-19T09:33:12;16.30;99.90
17333;DHT22;8784;50.94667800;7.08448400;2022-10-19T09:35:42;16.50;99.90
17333;DHT22;8784;50.94667800;7.08448400;2022-10-19T09:38:14;16.60;99.90
17333;DHT22;8784;50.94667800;7.08448400;2022-10-19T09:40:42;16.80;99.90
17333;DHT22;8784;50.94667800;7.08448400;2022-10-19T09:43:10;17.00;99.90
17333;DHT22;8784;50.94667800;7.08448400;2022-10-19T09:45:49;17.20;99.90
17333;DHT22;8784;50.94667800;7.08448400;2022-10-19T09:48:25;17.40;99.90
17333;DHT22;8784;50.94667800;7.08448400;2022-10-19T09:50:56;17.40;99.90
17333;DHT22;8784;50.94667800;7.08448400;2022-10-19T09:53:26;17.60;99.90
17333;DHT22;8784;50.94667800;7.08448400;2022-10-19T09:56:00;17.90;99.90
17333;DHT22;8784;50.94667800;7.08448400;2022-10-19T09:58:29;18.10;99.90
17333;DHT22;8784;50.94667800;7.08448400;2022-10-19T10:00:57;18.20;99.90
17333;DHT22;8784;50.94667800;7.08448400;2022-10-19T10:03:27;18.10;99.90
17333;DHT22;8784;50.94667800;7.08448400;2022-10-19T10:05:56;18.00;99.90
17333;DHT22;8784;50.94667800;7.08448400;2022-10-19T10:08:28;18.10;99.90
17333;DHT22;8784;50.94667800;7.08448400;2022-10-19T10:11:06;18.20;99.90
17333;DHT22;8784;50.94667800;7.08448400;2022-10-19T10:13:39;18.30;99.90
17333;DHT22;8784;50.94667800;7.08448400;2022-10-19T10:16:08;18.40;99.90
17333;DHT22;8784;50.94667800;7.08448400;2022-10-19T10:18:37;18.50;99.90
17333;DHT22;8784;50.94667800;7.08448400;2022-10-19T10:21:13;18.40;99.90
17333;DHT22;8784;50.94667800;7.08448400;2022-10-19T10:23:41;18.30;99.90
17333;DHT22;8784;50.94667800;7.08448400;2022-10-19T10:26:17;18.20;99.90
17333;DHT22;8784;50.94667800;7.08448400;2022-10-19T10:28:48;18.00;99.90
17333;DHT22;8784;50.94667800;7.08448400;2022-10-19T10:31:19;17.90;99.90
17333;DHT22;8784;50.94667800;7.08448400;2022-10-19T10:33:53;17.60;99.90
17333;DHT22;8784;50.94667800;7.08448400;2022-10-19T10:36:23;17.50;99.90
17333;DHT22;8784;50.94667800;7.08448400;2022-10-19T10:38:54;17.30;99.90
17333;DHT22;8784;50.94667800;7.08448400;2022-10-19T10:41:23;17.30;99.90
17333;DHT22;8784;50.94667800;7.08448400;2022-10-19T10:43:55;17.40;99.90
17333;DHT22;8784;50.94667800;7.08448400;2022-10-19T10:46:25;17.50;99.90
17333;DHT22;8784;50.94667800;7.08448400;2022-10-19T10:48:55;17.60;99.90
17333;DHT22;8784;50.94667800;7.08448400;2022-10-19T10:51:29;17.60;99.90
17333;DHT22;8784;50.94667800;7.08448400;2022-10-19T10:54:17;17.70;99.90
17333;DHT22;8784;50.94667800;7.08448400;2022-10-19T10:57:02;17.70;99.90
17333;DHT22;8784;50.94667800;7.08448400;2022-10-19T10:59:32;17.70;99.90
17333;DHT22;8784;50.94667800;7.08448400;2022-10-19T11:02:07;17.70;99.90
17333;DHT22;8784;50.94667800;7.08448400;2022-10-19T11:04:39;17.70;99.90
17333;DHT22;8784;50.94667800;7.08448400;2022-10-19T11:07:15;17.70;99.90
17333;DHT22;8784;50.94667800;7.08448400;2022-10-19T11:09:49;17.70;99.90
17333;DHT22;8784;50.94667800;7.08448400;2022-10-19T11:12:23;17.70;99.90
17333;DHT22;8784;50.94667800;7.08448400;2022-10-19T11:15:02;17.80;99.90
17333;DHT22;8784;50.94667800;7.08448400;2022-10-19T11:17:32;17.90;99.90
17333;DHT22;8784;50.94667800;7.08448400;2022-10-19T11:20:03;17.80;99.90
17333;DHT22;8784;50.94667800;7.08448400;2022-10-19T11:22:36;17.80;99.90
17333;DHT22;8784;50.94667800;7.08448400;2022-10-19T11:25:21;17.90;99.90
17333;DHT22;8784;50.94667800;7.08448400;2022-10-19T11:27:59;18.10;99.90
17333;DHT22;8784;50.94667800;7.08448400;2022-10-19T11:30:32;18.10;99.90
17333;DHT22;8784;50.94667800;7.08448400;2022-10-19T11:33:05;18.10;99.90
17333;DHT22;8784;50.94667800;7.08448400;2022-10-19T11:35:47;18.00;99.90
17333;DHT22;8784;50.94667800;7.08448400;2022-10-19T11:38:38;18.00;99.60
17333;DHT22;8784;50.94667800;7.08448400;2022-10-19T11:41:18;18.00;99.50
17333;DHT22;8784;50.94667800;7.08448400;2022-10-19T11:44:05;18.00;99.10
17333;DHT22;8784;50.94667800;7.08448400;2022-10-19T11:46:42;17.80;98.20
17333;DHT22;8784;50.94667800;7.08448400;2022-10-19T11:49:21;17.70;99.10
17333;DHT22;8784;50.94667800;7.08448400;2022-10-19T11:51:56;17.80;99.00
17333;DHT22;8784;50.94667800;7.08448400;2022-10-19T11:54:37;17.90;99.30
17333;DHT22;8784;50.94667800;7.08448400;2022-10-19T11:57:13;18.00;99.20
17333;DHT22;8784;50.94667800;7.08448400;2022-10-19T12:00:00;18.10;99.00
17333;DHT22;8784;50.94667800;7.08448400;2022-10-19T12:03:00;18.30;98.70
17333;DHT22;8784;50.94667800;7.08448400;2022-10-19T12:05:37;18.50;98.80
17333;DHT22;8784;50.94667800;7.08448400;2022-10-19T12:08:18;18.50;98.50
17333;DHT22;8784;50.94667800;7.08448400;2022-10-19T12:10:56;18.60;98.10
17333;DHT22;8784;50.94667800;7.08448400;2022-10-19T12:13:39;18.70;98.10
17333;DHT22;8784;50.94667800;7.08448400;2022-10-19T12:16:09;18.70;97.70
17333;DHT22;8784;50.94667800;7.08448400;2022-10-19T12:18:40;18.60;97.60
17333;DHT22;8784;50.94667800;7.08448400;2022-10-19T12:21:12;18.60;97.80
17333;DHT22;8784;50.94667800;7.08448400;2022-10-19T12:23:43;18.60;97.80
17333;DHT22;8784;50.94667800;7.08448400;2022-10-19T12:26:19;18.70;97.70
17333;DHT22;8784;50.94667800;7.08448400;2022-10-19T12:28:50;18.70;97.80
17333;DHT22;8784;50.94667800;7.08448400;2022-10-19T12:31:20;18.60;97.70
17333;DHT22;8784;50.94667800;7.08448400;2022-10-19T12:33:52;18.70;97.90
17333;DHT22;8784;50.94667800;7.08448400;2022-10-19T12:36:28;18.70;98.10
17333;DHT22;8784;50.94667800;7.08448400;2022-10-19T12:39:01;18.70;98.00
17333;DHT22;8784;50.94667800;7.08448400;2022-10-19T12:41:37;18.80;97.80
17333;DHT22;8784;50.94667800;7.08448400;2022-10-19T12:44:25;18.80;97.60
17333;DHT22;8784;50.94667800;7.08448400;2022-10-19T12:46:59;18.70;96.80
17333;DHT22;8784;50.94667800;7.08448400;2022-10-19T12:49:36;18.60;97.20
17333;DHT22;8784;50.94667800;7.08448400;2022-10-19T12:52:09;18.60;97.60
17333;DHT22;8784;50.94667800;7.08448400;2022-10-19T12:54:38;18.60;97.40
17333;DHT22;8784;50.94667800;7.08448400;2022-10-19T12:57:22;18.60;97.50
17333;DHT22;8784;50.94667800;7.08448400;2022-10-19T12:59:59;18.70;97.20
17333;DHT22;8784;50.94667800;7.08448400;2022-10-19T13:02:29;18.70;97.40
17333;DHT22;8784;50.94667800;7.08448400;2022-10-19T13:04:57;18.70;97.60
17333;DHT22;8784;50.94667800;7.08448400;2022-10-19T13:07:25;18.80;97.50
17333;DHT22;8784;50.94667800;7.08448400;2022-10-19T13:09:59;18.80;97.50
17333;DHT22;8784;50.94667800;7.08448400;2022-10-19T13:12:42;18.80;97.40
17333;DHT22;8784;50.94667800;7.08448400;2022-10-19T13:18:15;18.80;97.00
17333;DHT22;8784;50.94667800;7.08448400;2022-10-19T13:21:06;18.80;97.50
17333;DHT22;8784;50.94667800;7.08448400;2022-10-19T13:23:39;18.80;97.30
17333;DHT22;8784;50.94667800;7.08448400;2022-10-19T13:26:30;18.70;96.80
17333;DHT22;8784;50.94667800;7.08448400;2022-10-19T13:28:57;18.50;96.80
17333;DHT22;8784;50.94667800;7.08448400;2022-10-19T13:31:26;18.40;97.30
17333;DHT22;8784;50.94667800;7.08448400;2022-10-19T13:33:54;18.50;97.50
17333;DHT22;8784;50.94667800;7.08448400;2022-10-19T13:36:23;18.50;97.30
17333;DHT22;8784;50.94667800;7.08448400;2022-10-19T13:39:11;18.50;97.00
17333;DHT22;8784;50.94667800;7.08448400;2022-10-19T13:41:49;18.50;97.00
17333;DHT22;8784;50.94667800;7.08448400;2022-10-19T13:44:30;18.50;97.30
17333;DHT22;8784;50.94667800;7.08448400;2022-10-19T13:47:23;18.60;97.30
17333;DHT22;8784;50.94667800;7.08448400;2022-10-19T13:53:22;18.60;97.30
17333;DHT22;8784;50.94667800;7.08448400;2022-10-19T13:56:18;18.60;97.30
17333;DHT22;8784;50.94667800;7.08448400;2022-10-19T14:01:59;18.50;97.40
17333;DHT22;8784;50.94667800;7.08448400;2022-10-19T14:04:45;18.40;97.70
17333;DHT22;8784;50.94667800;7.08448400;2022-10-19T14:07:20;18.40;97.70
17333;DHT22;8784;50.94667800;7.08448400;2022-10-19T14:10:06;18.40;97.90